Stolt Dipper — ZCMY3 — position and weather

sailwx.info

Track history (hours):
 
Tides and Currents Weather Stations Pressure Air Temp Water Temp Dewpoint Dewpoint Depression Visibility Wind Speed Wind Dir Waves Ship Positions

Stolt Dipper

Last reported at 2015-May-25 12:31 UTC. Time now 2015-May-25 13:31 UTC.
Position N 53°17' W 002°52'.

Length 96 m; draft 5 m.

Type: Tanker. MMSI: 319036000.

Date/timePositionNaut miles runAvg speedWind from/ knotsBaromVisibWave heightAir tempDewpointWater temp
2015-May-25 12:31N 53°17' W 002°52'0 0.0
2015-May-25 11:28N 53°17' W 002°52'0 0.0
2015-May-25 10:31N 53°17' W 002°52'0 0.0
2015-May-25 09:31N 53°17' W 002°52'0 0.0
2015-May-25 08:31N 53°17' W 002°52'0 0.0
2015-May-25 07:28N 53°17' W 002°52'0 0.0
2015-May-25 06:31N 53°17' W 002°52'0 0.0
2015-May-25 05:31N 53°17' W 002°52'0 0.0
2015-May-25 04:31N 53°17' W 002°52'0 0.0
2015-May-25 03:31N 53°17' W 002°52'0 0.0
2015-May-25 02:31N 53°17' W 002°52'0 0.0
2015-May-25 01:25N 53°17' W 002°52'0 0.0
2015-May-25 00:28N 53°17' W 002°52'0 0.0
2015-May-24 23:31N 53°17' W 002°52'0 0.0
2015-May-24 22:31N 53°17' W 002°52'0 0.0
2015-May-24 21:31N 53°17' W 002°52'0 0.0
2015-May-24 20:31N 53°17' W 002°52'0 0.0
2015-May-24 19:31N 53°17' W 002°52'2 2.0
2015-May-24 18:33N 53°18' W 002°55'2 1.6
2015-May-24 17:33N 53°19' W 002°57'0 0.0
2015-May-24 16:33N 53°19' W 002°57'1 1.2
2015-May-24 15:33N 53°20' W 002°57'8 7.9
2015-May-24 14:33N 53°27' W 003°03'10 9.8
2015-May-24 13:33N 53°31' W 003°18'4 3.6
2015-May-24 12:33N 53°28' W 003°22'0 0.0
2015-May-24 11:33N 53°28' W 003°22'0 0.0
2015-May-24 10:33N 53°28' W 003°22'0 0.0
2015-May-24 09:33N 53°28' W 003°22'0 0.0
2015-May-24 08:33N 53°28' W 003°22'0 0.0
2015-May-24 07:33N 53°28' W 003°22'0 0.1
2015-May-24 06:33N 53°29' W 003°22'0 0.0
2015-May-24 05:33N 53°29' W 003°22'0 0.0
2015-May-24 04:27N 53°29' W 003°23'0 0.1
2015-May-24 03:33N 53°28' W 003°22'0 0.0
2015-May-24 02:33N 53°29' W 003°22'0 0.0
2015-May-24 01:33N 53°29' W 003°22'0 0.0
2015-May-24 00:33N 53°29' W 003°22'0 0.0
2015-May-23 23:33N 53°29' W 003°22'0 0.0
2015-May-23 22:30N 53°29' W 003°22'0 0.1
2015-May-23 21:33N 53°29' W 003°23'0 0.0
2015-May-23 20:33N 53°29' W 003°23'0 0.0
2015-May-23 19:33N 53°29' W 003°23'0 0.0
2015-May-23 18:33N 53°29' W 003°23'0 0.0
2015-May-23 17:33N 53°29' W 003°23'0 0.0
2015-May-23 16:33N 53°29' W 003°23'0 0.0
2015-May-23 15:30N 53°28' W 003°23'0 0.0
2015-May-23 14:33N 53°28' W 003°22'0 0.0
2015-May-23 13:33N 53°28' W 003°22'0 0.0
2015-May-23 12:33N 53°28' W 003°22'0 0.0
2015-May-23 11:27N 53°29' W 003°22'0 0.0
2015-May-23 10:24N 53°28' W 003°22'0 0.0
2015-May-23 09:33N 53°28' W 003°22'0 0.0
2015-May-23 08:33N 53°28' W 003°22'0 0.1
2015-May-23 07:33N 53°28' W 003°23'0 0.0
2015-May-23 06:32N 53°28' W 003°22'9 9.1
2015-May-23 05:33N 53°31' W 003°37'1313.1
2015-May-23 04:33N 53°30' W 003°59'228 7.8
2015-May-21 23:23N 49°60' W 001°35'1010.3
2015-May-21 22:24N 49°57' W 001°20'11 9.7
2015-May-21 21:17N 49°53' W 001°04'810.5
2015-May-21 20:32N 49°49' W 000°54'1212.5
2015-May-21 19:34N 49°42' W 000°38'1414.3
2015-May-21 18:33N 49°35' W 000°19'1414.1
2015-May-21 17:34N 49°30' E 000°01'6 6.2
2015-May-21 16:33N 49°29' E 000°10'3 2.8
2015-May-21 15:33N 49°28' E 000°15'0 0.0
2015-May-21 14:32N 49°28' E 000°15'0 0.0
2015-May-21 13:32N 49°28' E 000°15'0 0.0
2015-May-21 12:32N 49°28' E 000°15'0 0.0
2015-May-21 11:32N 49°28' E 000°15'0 0.0
2015-May-21 10:26N 49°28' E 000°15'0 0.0
2015-May-21 09:32N 49°28' E 000°15'0 0.0
2015-May-21 08:29N 49°28' E 000°15'0 0.0
2015-May-21 07:32N 49°28' E 000°15'0 0.0
2015-May-21 06:32N 49°28' E 000°15'0 0.0
2015-May-21 05:32N 49°28' E 000°15'0 0.0
2015-May-21 04:32N 49°28' E 000°15'0 0.0
2015-May-21 03:32N 49°28' E 000°15'0 0.0
2015-May-21 02:32N 49°28' E 000°15'0 0.0
2015-May-21 01:32N 49°28' E 000°15'3 2.8
2015-May-21 00:33N 49°29' E 000°10'2 2.1
2015-May-20 23:33N 49°28' E 000°07'1111.3
2015-May-20 22:33N 49°31' W 000°10'10 9.7
2015-May-20 21:33N 49°35' W 000°23'1513.9
2015-May-20 20:28N 49°42' W 000°44'  
2015-May-18 01:05N 53°33' W 004°10'814.6
2015-May-18 00:33N 53°33' W 003°57'1413.6
2015-May-17 23:33N 53°33' W 003°34'1212.3
2015-May-17 22:33N 53°31' W 003°13'10 9.7
2015-May-17 21:33N 53°25' W 003°01'6 6.1
2015-May-17 20:33N 53°19' W 002°57'4 4.1
2015-May-17 19:33N 53°17' W 002°51'4 4.4
2015-May-17 18:33N 53°20' W 002°46'0 0.0
2015-May-17 17:32N 53°20' W 002°46'0 0.0
2015-May-17 16:33N 53°20' W 002°46'0 0.0
2015-May-17 15:33N 53°20' W 002°46'0 0.0
2015-May-17 14:33N 53°20' W 002°46'0 0.0
2015-May-17 13:33N 53°20' W 002°46'0 0.0
2015-May-17 12:33N 53°20' W 002°46'0 0.0
2015-May-17 11:33N 53°20' W 002°46'0 0.0
2015-May-17 10:33N 53°20' W 002°46'0 0.0
2015-May-17 09:33N 53°20' W 002°46'0 0.0
2015-May-17 08:33N 53°20' W 002°46'0 0.0
2015-May-17 07:33N 53°20' W 002°46'0 0.0
2015-May-17 06:33N 53°20' W 002°46'0 0.0
2015-May-17 05:33N 53°20' W 002°46'0 0.0
2015-May-17 04:33N 53°20' W 002°46'0 0.0
2015-May-17 03:33N 53°20' W 002°46'0 0.0
2015-May-17 02:33N 53°20' W 002°46'0 0.0
2015-May-17 01:33N 53°20' W 002°45'4 4.1
2015-May-17 00:33N 53°17' W 002°50'4 4.4
2015-May-16 23:33N 53°19' W 002°57'2 1.6
2015-May-16 22:33N 53°21' W 002°58'9 9.4
2015-May-16 21:33N 53°29' W 003°05'9 8.7
2015-May-16 20:33N 53°31' W 003°19'4 4.5
2015-May-16 19:33N 53°28' W 003°25'0 0.0
2015-May-16 18:34N 53°28' W 003°25'0 0.0
2015-May-16 17:30N 53°28' W 003°25'0 0.0
2015-May-16 16:33N 53°28' W 003°25'0 0.0
2015-May-16 15:33N 53°28' W 003°25'0 0.1
2015-May-16 14:33N 53°28' W 003°25'0 0.1
2015-May-16 13:33N 53°28' W 003°25'0 0.0
2015-May-16 12:31N 53°28' W 003°25'0 0.1
2015-May-16 11:33N 53°28' W 003°25'6 5.6
2015-May-16 10:34N 53°31' W 003°34'1212.2
2015-May-16 09:33N 53°36' W 003°53'2 0.9
2015-May-16 07:33N 53°37' W 003°52'2110.5
2015-May-16 05:31N 53°52' W 004°18'1110.5
2015-May-16 04:30N 53°45' W 004°04'1011.2
2015-May-16 03:33N 53°37' W 003°53'18 7.9
2015-May-16 01:15N 53°49' W 004°16'1013.9
2015-May-16 00:33N 53°43' W 004°03'1413.9
2015-May-15 23:33N 53°34' W 003°45'1313.3
2015-May-15 22:33N 53°33' W 003°23'1111.3
2015-May-15 21:33N 53°29' W 003°05'1110.8
2015-May-15 20:33N 53°19' W 002°57'2 2.5
2015-May-15 19:33N 53°18' W 002°54'5 5.4
2015-May-15 18:33N 53°19' W 002°45'6 5.9
2015-May-15 17:32N 53°22' W 002°37'3 3.5
2015-May-15 16:33N 53°23' W 002°31'4 4.1
2015-May-15 15:30N 53°26' W 002°25'  
Track history (hours):
 
Tides and Currents Weather Stations Pressure Air Temp Water Temp Dewpoint Dewpoint Depression Visibility Wind Speed Wind Dir Waves Ship Positions

Stolt Dipper

Last reported at 2015-May-25 12:31 UTC. Time now 2015-May-25 13:31 UTC.
Position N 53°17' W 002°52'.

Length 96 m; draft 5 m.

Type: Tanker. MMSI: 319036000.

Date/timePositionNaut miles runAvg speedWind from/ knotsBaromVisibWave heightAir tempDewpointWater temp
2015-May-25 12:31N 53°17' W 002°52'0 0.0
2015-May-25 11:28N 53°17' W 002°52'0 0.0
2015-May-25 10:31N 53°17' W 002°52'0 0.0
2015-May-25 09:31N 53°17' W 002°52'0 0.0
2015-May-25 08:31N 53°17' W 002°52'0 0.0
2015-May-25 07:28N 53°17' W 002°52'0 0.0
2015-May-25 06:31N 53°17' W 002°52'0 0.0
2015-May-25 05:31N 53°17' W 002°52'0 0.0
2015-May-25 04:31N 53°17' W 002°52'0 0.0
2015-May-25 03:31N 53°17' W 002°52'0 0.0
2015-May-25 02:31N 53°17' W 002°52'0 0.0
2015-May-25 01:25N 53°17' W 002°52'0 0.0
2015-May-25 00:28N 53°17' W 002°52'0 0.0
2015-May-24 23:31N 53°17' W 002°52'0 0.0
2015-May-24 22:31N 53°17' W 002°52'0 0.0
2015-May-24 21:31N 53°17' W 002°52'0 0.0
2015-May-24 20:31N 53°17' W 002°52'0 0.0
2015-May-24 19:31N 53°17' W 002°52'2 2.0
2015-May-24 18:33N 53°18' W 002°55'2 1.6
2015-May-24 17:33N 53°19' W 002°57'0 0.0
2015-May-24 16:33N 53°19' W 002°57'1 1.2
2015-May-24 15:33N 53°20' W 002°57'8 7.9
2015-May-24 14:33N 53°27' W 003°03'10 9.8
2015-May-24 13:33N 53°31' W 003°18'4 3.6
2015-May-24 12:33N 53°28' W 003°22'0 0.0
2015-May-24 11:33N 53°28' W 003°22'0 0.0
2015-May-24 10:33N 53°28' W 003°22'0 0.0
2015-May-24 09:33N 53°28' W 003°22'0 0.0
2015-May-24 08:33N 53°28' W 003°22'0 0.0
2015-May-24 07:33N 53°28' W 003°22'0 0.1
2015-May-24 06:33N 53°29' W 003°22'0 0.0
2015-May-24 05:33N 53°29' W 003°22'0 0.0
2015-May-24 04:27N 53°29' W 003°23'0 0.1
2015-May-24 03:33N 53°28' W 003°22'0 0.0
2015-May-24 02:33N 53°29' W 003°22'0 0.0
2015-May-24 01:33N 53°29' W 003°22'0 0.0
2015-May-24 00:33N 53°29' W 003°22'0 0.0
2015-May-23 23:33N 53°29' W 003°22'0 0.0
2015-May-23 22:30N 53°29' W 003°22'0 0.1
2015-May-23 21:33N 53°29' W 003°23'0 0.0
2015-May-23 20:33N 53°29' W 003°23'0 0.0
2015-May-23 19:33N 53°29' W 003°23'0 0.0
2015-May-23 18:33N 53°29' W 003°23'0 0.0
2015-May-23 17:33N 53°29' W 003°23'0 0.0
2015-May-23 16:33N 53°29' W 003°23'0 0.0
2015-May-23 15:30N 53°28' W 003°23'0 0.0
2015-May-23 14:33N 53°28' W 003°22'0 0.0
2015-May-23 13:33N 53°28' W 003°22'0 0.0
2015-May-23 12:33N 53°28' W 003°22'0 0.0
2015-May-23 11:27N 53°29' W 003°22'0 0.0
2015-May-23 10:24N 53°28' W 003°22'0 0.0
2015-May-23 09:33N 53°28' W 003°22'0 0.0
2015-May-23 08:33N 53°28' W 003°22'0 0.1
2015-May-23 07:33N 53°28' W 003°23'0 0.0
2015-May-23 06:32N 53°28' W 003°22'9 9.1
2015-May-23 05:33N 53°31' W 003°37'1313.1
2015-May-23 04:33N 53°30' W 003°59'228 7.8
2015-May-21 23:23N 49°60' W 001°35'1010.3
2015-May-21 22:24N 49°57' W 001°20'11 9.7
2015-May-21 21:17N 49°53' W 001°04'810.5
2015-May-21 20:32N 49°49' W 000°54'1212.5
2015-May-21 19:34N 49°42' W 000°38'1414.3
2015-May-21 18:33N 49°35' W 000°19'1414.1
2015-May-21 17:34N 49°30' E 000°01'6 6.2
2015-May-21 16:33N 49°29' E 000°10'3 2.8
2015-May-21 15:33N 49°28' E 000°15'0 0.0
2015-May-21 14:32N 49°28' E 000°15'0 0.0
2015-May-21 13:32N 49°28' E 000°15'0 0.0
2015-May-21 12:32N 49°28' E 000°15'0 0.0
2015-May-21 11:32N 49°28' E 000°15'0 0.0
2015-May-21 10:26N 49°28' E 000°15'0 0.0
2015-May-21 09:32N 49°28' E 000°15'0 0.0
2015-May-21 08:29N 49°28' E 000°15'0 0.0
2015-May-21 07:32N 49°28' E 000°15'0 0.0
2015-May-21 06:32N 49°28' E 000°15'0 0.0
2015-May-21 05:32N 49°28' E 000°15'0 0.0
2015-May-21 04:32N 49°28' E 000°15'0 0.0
2015-May-21 03:32N 49°28' E 000°15'0 0.0
2015-May-21 02:32N 49°28' E 000°15'0 0.0
2015-May-21 01:32N 49°28' E 000°15'3 2.8
2015-May-21 00:33N 49°29' E 000°10'2 2.1
2015-May-20 23:33N 49°28' E 000°07'1111.3
2015-May-20 22:33N 49°31' W 000°10'10 9.7
2015-May-20 21:33N 49°35' W 000°23'1513.9
2015-May-20 20:28N 49°42' W 000°44'  
2015-May-18 01:05N 53°33' W 004°10'814.6
2015-May-18 00:33N 53°33' W 003°57'1413.6
2015-May-17 23:33N 53°33' W 003°34'1212.3
2015-May-17 22:33N 53°31' W 003°13'10 9.7
2015-May-17 21:33N 53°25' W 003°01'6 6.1
2015-May-17 20:33N 53°19' W 002°57'4 4.1
2015-May-17 19:33N 53°17' W 002°51'4 4.4
2015-May-17 18:33N 53°20' W 002°46'0 0.0
2015-May-17 17:32N 53°20' W 002°46'0 0.0
2015-May-17 16:33N 53°20' W 002°46'0 0.0
2015-May-17 15:33N 53°20' W 002°46'0 0.0
2015-May-17 14:33N 53°20' W 002°46'0 0.0
2015-May-17 13:33N 53°20' W 002°46'0 0.0
2015-May-17 12:33N 53°20' W 002°46'0 0.0
2015-May-17 11:33N 53°20' W 002°46'0 0.0
2015-May-17 10:33N 53°20' W 002°46'0 0.0
2015-May-17 09:33N 53°20' W 002°46'0 0.0
2015-May-17 08:33N 53°20' W 002°46'0 0.0
2015-May-17 07:33N 53°20' W 002°46'0 0.0
2015-May-17 06:33N 53°20' W 002°46'0 0.0
2015-May-17 05:33N 53°20' W 002°46'0 0.0
2015-May-17 04:33N 53°20' W 002°46'0 0.0
2015-May-17 03:33N 53°20' W 002°46'0 0.0
2015-May-17 02:33N 53°20' W 002°46'0 0.0
2015-May-17 01:33N 53°20' W 002°45'4 4.1
2015-May-17 00:33N 53°17' W 002°50'4 4.4
2015-May-16 23:33N 53°19' W 002°57'2 1.6
2015-May-16 22:33N 53°21' W 002°58'9 9.4
2015-May-16 21:33N 53°29' W 003°05'9 8.7
2015-May-16 20:33N 53°31' W 003°19'4 4.5
2015-May-16 19:33N 53°28' W 003°25'0 0.0
2015-May-16 18:34N 53°28' W 003°25'0 0.0
2015-May-16 17:30N 53°28' W 003°25'0 0.0
2015-May-16 16:33N 53°28' W 003°25'0 0.0
2015-May-16 15:33N 53°28' W 003°25'0 0.1
2015-May-16 14:33N 53°28' W 003°25'0 0.1
2015-May-16 13:33N 53°28' W 003°25'0 0.0
2015-May-16 12:31N 53°28' W 003°25'0 0.1
2015-May-16 11:33N 53°28' W 003°25'6 5.6
2015-May-16 10:34N 53°31' W 003°34'1212.2
2015-May-16 09:33N 53°36' W 003°53'2 0.9
2015-May-16 07:33N 53°37' W 003°52'2110.5
2015-May-16 05:31N 53°52' W 004°18'1110.5
2015-May-16 04:30N 53°45' W 004°04'1011.2
2015-May-16 03:33N 53°37' W 003°53'18 7.9
2015-May-16 01:15N 53°49' W 004°16'1013.9
2015-May-16 00:33N 53°43' W 004°03'1413.9
2015-May-15 23:33N 53°34' W 003°45'1313.3
2015-May-15 22:33N 53°33' W 003°23'1111.3
2015-May-15 21:33N 53°29' W 003°05'1110.8
2015-May-15 20:33N 53°19' W 002°57'2 2.5
2015-May-15 19:33N 53°18' W 002°54'5 5.4
2015-May-15 18:33N 53°19' W 002°45'6 5.9
2015-May-15 17:32N 53°22' W 002°37'3 3.5
2015-May-15 16:33N 53°23' W 002°31'4 4.1
2015-May-15 15:30N 53°26' W 002°25'  

Dump ship's entire track history